Time;durP1;ratioP1;P1;durP2;ratioP2;P2;SDS_P1;SDS_P2;PMS_P1;PMS_P2;Temp;Humidity;BMP_temperature;BMP_pressure;BME280_temperature;BME280_humidity;BME280_pressure;Samples;Min_cycle;Max_cycle;Signal;HPM_P1;HPM_P2
2023/08/27 00:00:32;;;;;;;3.08;1.30;;;20.30;51.80;;;;;;4945922;28;20066;-59
2023/08/27 00:03:01;;;;;;;1.73;0.80;;;20.20;51.80;;;;;;4944029;28;20061;-58
2023/08/27 00:05:28;;;;;;;1.98;1.08;;;20.20;51.70;;;;;;4943820;28;20047;-59
2023/08/27 00:07:55;;;;;;;2.15;1.27;;;20.20;51.80;;;;;;4944879;28;20503;-59
2023/08/27 00:10:23;;;;;;;1.67;1.23;;;20.20;51.90;;;;;;4945689;28;20066;-59
2023/08/27 00:12:50;;;;;;;1.23;0.90;;;20.20;52.00;;;;;;4946082;28;20059;-59
2023/08/27 00:15:18;;;;;;;1.70;0.93;;;20.20;52.10;;;;;;4945028;28;20053;-59
2023/08/27 00:17:45;;;;;;;2.35;1.15;;;20.10;52.10;;;;;;4946298;28;20062;-59
2023/08/27 00:20:14;;;;;;;1.17;1.00;;;20.10;52.10;;;;;;4944124;28;20480;-59
2023/08/27 00:22:41;;;;;;;2.50;1.35;;;20.10;52.20;;;;;;4945594;28;20076;-59
2023/08/27 00:25:09;;;;;;;1.95;1.10;;;20.10;52.40;;;;;;4944874;28;20058;-59
2023/08/27 00:27:36;;;;;;;1.48;1.17;;;20.10;52.20;;;;;;4944500;28;20044;-59
2023/08/27 00:30:04;;;;;;;2.38;1.20;;;20.00;52.20;;;;;;4944179;28;20105;-59
2023/08/27 00:32:33;;;;;;;2.72;1.30;;;20.00;52.20;;;;;;4944647;28;20062;-59
2023/08/27 00:35:00;;;;;;;3.75;1.02;;;20.00;52.70;;;;;;4943883;28;20078;-59
2023/08/27 00:37:29;;;;;;;1.00;0.90;;;20.00;52.20;;;;;;4945557;28;20063;-59
2023/08/27 00:39:56;;;;;;;2.85;1.30;;;20.00;52.30;;;;;;4944260;28;20058;-59
2023/08/27 00:42:23;;;;;;;2.28;1.10;;;20.00;52.80;;;;;;4944560;28;20051;-59
2023/08/27 00:44:51;;;;;;;2.22;1.38;;;20.00;52.30;;;;;;4945773;28;20050;-57
2023/08/27 00:47:18;;;;;;;1.80;1.23;;;19.90;52.30;;;;;;4945385;28;20054;-58
2023/08/27 00:49:46;;;;;;;1.65;1.40;;;19.90;52.30;;;;;;4943381;28;20051;-55
2023/08/27 00:52:17;;;;;;;2.72;1.10;;;19.90;52.20;;;;;;4945179;28;20069;-55
2023/08/27 00:54:46;;;;;;;3.33;1.27;;;19.90;52.20;;;;;;4944140;28;20047;-56
2023/08/27 00:57:15;;;;;;;2.40;1.40;;;19.80;52.20;;;;;;4943954;28;20059;-56
2023/08/27 00:59:42;;;;;;;2.10;1.30;;;19.80;52.30;;;;;;4944639;28;20057;-54
2023/08/27 01:02:09;;;;;;;4.00;1.55;;;19.80;52.90;;;;;;4945646;28;20066;-59
2023/08/27 01:04:36;;;;;;;5.18;1.60;;;19.70;52.40;;;;;;4961755;23;20055;-88
2023/08/27 01:07:11;;;;;;;2.75;1.30;;;19.80;52.40;;;;;;4959522;28;20130;-89
2023/08/27 01:09:45;;;;;;;2.20;1.27;;;19.70;52.30;;;;;;4960259;28;20062;-89
2023/08/27 01:12:21;;;;;;;3.00;1.33;;;19.70;52.30;;;;;;4965910;28;20055;-89
2023/08/27 01:14:51;;;;;;;2.92;1.30;;;19.60;52.30;;;;;;4956719;28;20050;-89
2023/08/27 01:17:21;;;;;;;2.95;1.30;;;19.60;52.40;;;;;;4958351;28;20058;-89
2023/08/27 01:19:49;;;;;;;4.45;1.17;;;19.60;52.50;;;;;;4954223;28;20058;-89
2023/08/27 01:22:18;;;;;;;2.13;1.20;;;19.60;52.60;;;;;;4956850;28;20058;-88
2023/08/27 01:24:45;;;;;;;1.85;1.23;;;19.50;52.70;;;;;;4952826;28;20061;-88
2023/08/27 01:27:16;;;;;;;2.83;1.67;;;19.60;52.80;;;;;;4958512;28;20055;-89
2023/08/27 01:29:50;;;;;;;2.15;1.30;;;19.50;52.70;;;;;;4962451;28;20406;-89
2023/08/27 01:32:29;;;;;;;1.95;1.58;;;19.50;52.80;;;;;;4950458;28;20491;-88
2023/08/27 01:34:57;;;;;;;3.67;1.10;;;19.50;52.90;;;;;;4955679;28;20529;-88
2023/08/27 01:37:26;;;;;;;5.70;1.50;;;19.40;52.80;;;;;;4959264;28;20157;-89
2023/08/27 01:39:59;;;;;;;3.15;1.27;;;19.50;53.00;;;;;;4956914;28;20055;-89
2023/08/27 01:42:26;;;;;;;2.30;1.30;;;19.50;53.10;;;;;;4957282;28;20097;-89
2023/08/27 01:44:54;;;;;;;2.28;1.15;;;19.40;53.00;;;;;;4958522;28;20063;-89
2023/08/27 01:47:21;;;;;;;2.25;1.40;;;19.40;53.10;;;;;;4955992;28;20067;-89
2023/08/27 01:49:50;;;;;;;2.10;1.30;;;19.50;53.20;;;;;;4953209;28;20066;-89
2023/08/27 01:52:17;;;;;;;4.07;1.42;;;19.40;53.10;;;;;;4960187;28;20058;-89
2023/08/27 01:54:46;;;;;;;2.42;1.20;;;19.50;53.20;;;;;;4960698;28;20074;-89
2023/08/27 01:57:13;;;;;;;2.50;1.30;;;19.40;53.10;;;;;;4961406;28;20054;-88
2023/08/27 01:59:41;;;;;;;2.30;1.25;;;19.40;53.10;;;;;;4958319;28;20069;-88
2023/08/27 02:02:08;;;;;;;2.10;1.23;;;19.40;53.20;;;;;;4960480;28;20604;-89
2023/08/27 02:04:37;;;;;;;2.00;1.45;;;19.40;53.20;;;;;;4962839;28;20073;-89
2023/08/27 02:07:04;;;;;;;1.70;1.38;;;19.40;53.20;;;;;;4961583;28;20069;-88
2023/08/27 02:09:32;;;;;;;4.00;1.65;;;19.40;53.20;;;;;;4958749;28;20055;-89
2023/08/27 02:12:00;;;;;;;2.15;1.23;;;19.40;53.20;;;;;;4959058;28;20160;-88
2023/08/27 02:14:28;;;;;;;2.78;1.23;;;19.40;53.20;;;;;;4957970;28;20047;-88
2023/08/27 02:16:55;;;;;;;1.75;1.40;;;19.40;53.20;;;;;;4959070;28;20065;-87
2023/08/27 02:19:22;;;;;;;2.97;1.42;;;19.40;53.20;;;;;;4950827;28;20742;-85
2023/08/27 02:21:51;;;;;;;1.77;1.25;;;19.30;53.20;;;;;;4959240;28;20082;-87
2023/08/27 02:24:18;;;;;;;2.22;1.02;;;19.40;53.30;;;;;;4960366;28;20051;-87
2023/08/27 02:26:45;;;;;;;2.08;1.30;;;19.30;53.30;;;;;;4960826;28;20050;-86
2023/08/27 02:29:15;;;;;;;2.88;1.38;;;19.30;53.30;;;;;;4960136;28;20593;-87
2023/08/27 02:31:42;;;;;;;1.92;1.13;;;19.30;53.40;;;;;;4962772;28;20065;-87
2023/08/27 02:34:09;;;;;;;2.58;1.60;;;19.20;53.30;;;;;;4964531;28;20058;-86
2023/08/27 02:36:37;;;;;;;2.38;1.42;;;19.20;53.30;;;;;;4959436;28;20051;-86
2023/08/27 02:39:04;;;;;;;1.95;1.40;;;19.30;53.30;;;;;;4959838;28;20047;-86
2023/08/27 02:41:32;;;;;;;2.70;1.10;;;19.20;53.30;;;;;;4962240;28;20057;-86
2023/08/27 02:43:59;;;;;;;4.85;1.45;;;19.20;53.40;;;;;;4960202;28;20396;-86
2023/08/27 02:46:28;;;;;;;1.90;1.15;;;19.20;53.50;;;;;;4963612;28;20062;-88
2023/08/27 02:48:56;;;;;;;1.73;1.38;;;19.20;53.60;;;;;;4963638;28;20053;-86
2023/08/27 02:51:23;;;;;;;2.38;1.08;;;19.20;53.60;;;;;;4962753;28;20541;-86
2023/08/27 02:53:51;;;;;;;3.65;1.80;;;19.20;53.70;;;;;;4967832;28;20055;-86
2023/08/27 02:56:18;;;;;;;1.52;1.10;;;19.10;53.70;;;;;;4961933;28;20073;-87
2023/08/27 02:58:48;;;;;;;1.15;1.02;;;19.10;53.70;;;;;;4960467;28;20055;-86
2023/08/27 03:01:18;;;;;;;2.28;1.17;;;19.10;53.80;;;;;;4966539;28;20121;-86
2023/08/27 03:03:47;;;;;;;2.15;1.20;;;19.10;53.80;;;;;;4962073;28;20436;-86
2023/08/27 03:06:15;;;;;;;3.83;1.17;;;19.00;53.80;;;;;;4960342;28;20055;-87
2023/08/27 03:08:42;;;;;;;2.13;1.02;;;19.10;53.90;;;;;;4960465;28;20058;-86
2023/08/27 03:11:09;;;;;;;3.08;1.38;;;19.10;53.90;;;;;;4959241;28;20050;-88
2023/08/27 03:13:37;;;;;;;2.25;1.17;;;19.00;53.90;;;;;;4962216;28;20061;-87
2023/08/27 03:16:04;;;;;;;1.77;1.00;;;19.00;53.90;;;;;;4962100;28;20066;-86
2023/08/27 03:18:32;;;;;;;3.15;1.38;;;19.00;53.90;;;;;;4961572;28;20058;-87
2023/08/27 03:21:00;;;;;;;2.45;1.20;;;19.00;53.90;;;;;;4958511;28;20717;-88
2023/08/27 03:23:30;;;;;;;1.17;1.00;;;19.00;53.90;;;;;;4959081;28;20053;-86
2023/08/27 03:25:58;;;;;;;1.42;0.90;;;19.00;53.90;;;;;;4960275;28;20498;-88
2023/08/27 03:28:26;;;;;;;2.47;0.90;;;19.00;54.00;;;;;;4961277;28;20058;-89
2023/08/27 03:30:54;;;;;;;2.17;1.02;;;19.00;54.00;;;;;;4959153;28;20055;-89
2023/08/27 03:33:21;;;;;;;3.83;1.30;;;18.90;54.00;;;;;;4961558;28;20522;-88
2023/08/27 03:35:53;;;;;;;2.25;1.20;;;18.90;54.00;;;;;;4959660;28;20088;-87
2023/08/27 03:38:22;;;;;;;1.20;0.90;;;18.90;54.60;;;;;;4959678;28;20047;-89
2023/08/27 03:40:50;;;;;;;1.90;1.15;;;18.90;54.10;;;;;;4958454;28;20062;-89
2023/08/27 03:43:18;;;;;;;2.50;1.40;;;18.90;54.10;;;;;;4961455;28;20066;-89
2023/08/27 03:45:47;;;;;;;1.23;1.13;;;19.00;54.20;;;;;;4959168;28;20051;-88
2023/08/27 03:48:14;;;;;;;1.95;1.08;;;18.90;54.20;;;;;;4958896;28;20063;-88
2023/08/27 03:50:42;;;;;;;1.75;1.05;;;18.90;54.20;;;;;;4957584;28;20054;-87
2023/08/27 03:53:11;;;;;;;2.05;1.15;;;18.90;54.20;;;;;;4960210;28;20425;-87
2023/08/27 03:55:41;;;;;;;1.15;1.00;;;18.90;54.20;;;;;;4961161;28;20165;-88
2023/08/27 03:58:09;;;;;;;1.00;0.90;;;18.90;54.20;;;;;;4960004;28;20423;-88
2023/08/27 04:00:37;;;;;;;1.23;0.93;;;18.90;54.20;;;;;;4958159;28;20058;-87
2023/08/27 04:03:05;;;;;;;1.63;1.00;;;18.90;54.20;;;;;;4960613;28;20061;-87
2023/08/27 04:05:33;;;;;;;1.75;1.10;;;18.90;54.30;;;;;;4958644;28;20470;-87
2023/08/27 04:08:02;;;;;;;2.88;1.08;;;18.90;54.30;;;;;;4958257;28;20438;-87
2023/08/27 04:10:29;;;;;;;4.22;1.42;;;18.90;54.30;;;;;;4960049;28;20063;-87
2023/08/27 04:12:59;;;;;;;1.27;1.13;;;18.90;54.30;;;;;;4960443;28;20443;-89
2023/08/27 04:15:28;;;;;;;1.75;1.10;;;18.90;54.40;;;;;;4958645;28;20066;-88
2023/08/27 04:17:55;;;;;;;1.27;1.13;;;18.90;54.40;;;;;;4956261;28;20479;-87
2023/08/27 04:20:23;;;;;;;1.10;1.00;;;18.90;54.40;;;;;;4956424;28;20054;-88
2023/08/27 04:22:51;;;;;;;3.92;1.02;;;18.80;54.40;;;;;;4963262;28;20050;-89
2023/08/27 04:25:18;;;;;;;2.65;1.13;;;18.80;54.30;;;;;;4960494;28;20054;-89
2023/08/27 04:27:46;;;;;;;1.65;1.20;;;18.90;54.40;;;;;;4958300;28;20050;-87
2023/08/27 04:30:16;;;;;;;3.83;1.38;;;18.80;54.40;;;;;;4957878;28;20050;-87
2023/08/27 04:32:44;;;;;;;2.05;0.93;;;18.80;54.40;;;;;;4941620;28;20055;-88
2023/08/27 04:35:11;;;;;;;2.55;1.20;;;18.80;54.40;;;;;;4957306;28;20063;-87
2023/08/27 04:37:40;;;;;;;3.47;1.15;;;18.80;54.60;;;;;;4957464;28;20055;-89
2023/08/27 04:40:09;;;;;;;3.75;1.05;;;18.80;54.50;;;;;;4957301;28;20085;-87
2023/08/27 04:42:37;;;;;;;2.20;1.20;;;18.80;54.50;;;;;;4958204;28;20047;-88
2023/08/27 04:45:06;;;;;;;2.70;1.20;;;18.80;54.60;;;;;;4958406;28;20059;-89
2023/08/27 04:47:35;;;;;;;1.05;0.93;;;18.80;54.60;;;;;;4959820;28;20414;-88
2023/08/27 04:50:04;;;;;;;2.90;1.30;;;18.80;54.60;;;;;;4957324;28;20150;-90
2023/08/27 04:52:32;;;;;;;2.05;1.05;;;18.80;54.60;;;;;;4959420;28;20054;-87
2023/08/27 04:55:00;;;;;;;1.58;1.00;;;18.80;54.60;;;;;;4958944;28;20142;-87
2023/08/27 04:57:28;;;;;;;2.40;1.40;;;18.80;54.70;;;;;;4957285;28;20062;-89
2023/08/27 04:59:56;;;;;;;3.53;1.55;;;18.80;54.70;;;;;;4959757;28;20050;-87
2023/08/27 05:02:24;;;;;;;1.38;1.00;;;18.80;54.70;;;;;;4958040;28;20054;-90
2023/08/27 05:04:52;;;;;;;2.22;1.02;;;18.80;54.70;;;;;;4955761;28;20473;-88
2023/08/27 05:07:21;;;;;;;2.70;1.20;;;18.80;54.70;;;;;;4958105;28;20050;-88
2023/08/27 05:09:48;;;;;;;2.13;1.10;;;18.80;54.70;;;;;;4955769;28;20051;-90
2023/08/27 05:12:15;;;;;;;7.70;1.23;;;18.80;54.80;;;;;;4964155;28;20051;-91
2023/08/27 05:14:43;;;;;;;2.13;1.20;;;18.80;54.80;;;;;;4966144;28;20047;-88
2023/08/27 05:17:11;;;;;;;1.90;1.05;;;18.80;54.80;;;;;;4957269;28;20055;-89
2023/08/27 05:19:38;;;;;;;4.60;1.10;;;18.80;54.80;;;;;;4958258;28;20058;-88
2023/08/27 05:22:07;;;;;;;3.63;1.35;;;18.80;54.80;;;;;;4959727;28;20074;-89
2023/08/27 05:24:36;;;;;;;3.50;1.20;;;18.80;54.80;;;;;;4940878;28;20057;-89
2023/08/27 05:27:04;;;;;;;1.13;0.90;;;18.80;54.80;;;;;;4959644;28;20172;-90
2023/08/27 05:29:31;;;;;;;2.13;0.95;;;18.80;54.90;;;;;;4957978;28;20069;-88
2023/08/27 05:31:58;;;;;;;1.52;1.08;;;18.80;54.80;;;;;;4960496;28;20061;-91
2023/08/27 05:34:27;;;;;;;1.30;1.17;;;18.80;54.80;;;;;;4956921;28;20096;-88
2023/08/27 05:36:54;;;;;;;3.67;1.35;;;18.80;54.80;;;;;;4959250;28;20061;-89
2023/08/27 05:39:23;;;;;;;1.50;0.98;;;18.80;54.90;;;;;;4960330;28;20061;-89
2023/08/27 05:41:51;;;;;;;1.75;1.00;;;18.80;55.00;;;;;;4959933;28;20055;-88
2023/08/27 05:44:18;;;;;;;1.15;0.82;;;18.70;55.00;;;;;;4941178;28;20047;-89
2023/08/27 05:46:45;;;;;;;1.90;0.93;;;18.80;55.20;;;;;;4958742;28;20055;-87
2023/08/27 05:49:17;;;;;;;1.35;1.00;;;18.80;55.20;;;;;;4957777;28;20058;-89
2023/08/27 05:51:45;;;;;;;3.58;1.17;;;18.80;55.20;;;;;;4958276;28;20051;-85
2023/08/27 05:54:12;;;;;;;1.48;1.10;;;18.80;55.20;;;;;;4956100;28;20415;-89
2023/08/27 05:56:41;;;;;;;2.42;1.02;;;18.80;55.30;;;;;;4955542;28;20070;-87
2023/08/27 05:59:09;;;;;;;2.60;1.17;;;18.90;55.40;;;;;;4958456;28;20099;-86
2023/08/27 06:01:36;;;;;;;2.25;1.20;;;18.90;55.50;;;;;;4956555;28;20053;-87
2023/08/27 06:04:04;;;;;;;3.80;0.95;;;18.90;55.40;;;;;;4958260;28;20062;-88
2023/08/27 06:06:31;;;;;;;3.55;1.00;;;18.90;56.00;;;;;;4957375;28;20055;-88
2023/08/27 06:08:58;;;;;;;1.55;0.80;;;18.90;55.60;;;;;;4956903;28;20050;-87
2023/08/27 06:11:25;;;;;;;1.55;0.82;;;18.90;55.70;;;;;;4959023;28;20057;-87
2023/08/27 06:13:54;;;;;;;2.17;1.00;;;18.90;55.80;;;;;;4959093;28;20059;-87
2023/08/27 06:16:21;;;;;;;2.90;1.00;;;18.90;55.90;;;;;;4954455;28;20066;-86
2023/08/27 06:18:49;;;;;;;1.70;1.20;;;19.00;56.00;;;;;;4952249;28;20063;-86
2023/08/27 06:21:17;;;;;;;2.90;0.95;;;19.00;55.90;;;;;;4957093;28;20051;-86
2023/08/27 06:23:46;;;;;;;1.95;0.95;;;19.00;55.90;;;;;;4958319;28;20054;-87
2023/08/27 06:26:13;;;;;;;1.77;0.77;;;19.10;56.00;;;;;;4958928;28;20054;-87
2023/08/27 06:28:40;;;;;;;0.90;0.80;;;19.10;56.00;;;;;;4956188;28;20590;-86
2023/08/27 06:31:09;;;;;;;1.55;0.77;;;19.10;56.00;;;;;;4955763;28;20062;-86
2023/08/27 06:33:38;;;;;;;0.80;0.75;;;19.20;56.10;;;;;;4958780;28;20066;-87
2023/08/27 06:36:06;;;;;;;1.40;0.80;;;19.20;56.00;;;;;;4957627;28;20491;-86
2023/08/27 06:38:33;;;;;;;2.92;0.73;;;19.20;56.00;;;;;;4961390;28;20059;-88
2023/08/27 06:41:00;;;;;;;1.83;0.90;;;19.20;55.90;;;;;;4962543;28;20054;-87
2023/08/27 06:43:28;;;;;;;0.75;0.70;;;19.20;55.90;;;;;;4959173;28;20490;-87
2023/08/27 06:45:55;;;;;;;1.08;0.75;;;19.20;55.90;;;;;;4959847;28;20047;-87
2023/08/27 06:48:23;;;;;;;1.70;0.77;;;19.30;55.90;;;;;;4960918;28;20072;-86
2023/08/27 06:50:51;;;;;;;1.25;0.60;;;19.30;56.00;;;;;;4960917;28;20047;-87
2023/08/27 06:53:19;;;;;;;2.20;0.70;;;19.40;56.00;;;;;;4960658;28;20067;-87
2023/08/27 06:55:46;;;;;;;0.50;0.50;;;19.40;56.00;;;;;;4961149;28;20053;-88
2023/08/27 06:58:13;;;;;;;2.75;1.00;;;19.40;56.00;;;;;;4960059;28;20066;-86
2023/08/27 07:00:40;;;;;;;2.22;1.00;;;19.40;55.90;;;;;;4960847;28;20055;-86
2023/08/27 07:03:08;;;;;;;1.88;0.98;;;19.40;55.90;;;;;;4961728;28;20051;-85
2023/08/27 07:05:36;;;;;;;3.65;0.70;;;19.40;55.90;;;;;;4959224;28;20105;-86
2023/08/27 07:08:05;;;;;;;2.15;1.08;;;19.50;55.90;;;;;;4962843;28;20062;-88
2023/08/27 07:10:32;;;;;;;0.98;0.70;;;19.50;55.90;;;;;;4961254;28;20413;-87
2023/08/27 07:12:59;;;;;;;1.30;0.70;;;19.50;55.90;;;;;;4957718;28;20047;-86
2023/08/27 07:15:28;;;;;;;2.70;0.90;;;19.60;55.90;;;;;;4961810;28;20065;-87
2023/08/27 07:17:55;;;;;;;2.05;0.80;;;19.60;55.90;;;;;;4961360;28;20058;-86
2023/08/27 07:20:26;;;;;;;3.30;1.20;;;19.60;55.80;;;;;;4958266;28;20068;-89
2023/08/27 07:22:58;;;;;;;2.15;1.25;;;19.60;55.90;;;;;;4963803;28;20058;-84
2023/08/27 07:25:25;;;;;;;2.70;1.17;;;19.60;55.80;;;;;;4962800;28;20055;-86
2023/08/27 07:27:53;;;;;;;3.50;1.30;;;19.60;55.70;;;;;;4959598;28;20059;-84
2023/08/27 07:30:20;;;;;;;5.68;1.10;;;19.50;55.90;;;;;;4958643;28;20474;-85
2023/08/27 07:32:47;;;;;;;2.20;1.13;;;19.50;55.90;;;;;;4961328;28;20495;-84
2023/08/27 07:35:15;;;;;;;3.42;1.10;;;19.40;55.80;;;;;;4960797;28;20062;-86
2023/08/27 07:37:42;;;;;;;5.43;1.10;;;19.40;55.70;;;;;;4960401;28;20058;-86
2023/08/27 07:40:11;;;;;;;1.65;1.00;;;19.40;55.90;;;;;;4958029;28;20061;-86
2023/08/27 07:42:39;;;;;;;3.40;1.05;;;19.40;55.80;;;;;;4959577;28;20051;-84
2023/08/27 07:45:07;;;;;;;2.22;1.00;;;19.30;55.70;;;;;;4959565;28;20063;-87
2023/08/27 07:47:35;;;;;;;4.25;1.70;;;19.30;55.90;;;;;;4960067;28;20059;-86
2023/08/27 07:50:02;;;;;;;1.92;0.95;;;19.30;55.80;;;;;;4959307;28;20082;-85
2023/08/27 07:52:29;;;;;;;2.65;1.00;;;19.30;55.60;;;;;;4962164;28;20520;-85
2023/08/27 07:54:57;;;;;;;2.28;0.93;;;19.30;55.80;;;;;;4961662;28;20065;-85
2023/08/27 07:57:26;;;;;;;2.60;0.95;;;19.40;55.90;;;;;;4959587;28;20051;-84
2023/08/27 07:59:54;;;;;;;1.50;0.90;;;19.40;56.00;;;;;;4959518;28;20475;-86
2023/08/27 08:02:21;;;;;;;1.73;0.80;;;19.40;56.00;;;;;;4961195;28;20536;-86
2023/08/27 08:04:48;;;;;;;2.47;0.70;;;19.50;56.10;;;;;;4959460;28;20499;-87
2023/08/27 08:07:17;;;;;;;1.98;1.10;;;19.60;56.00;;;;;;4959489;28;20491;-91
2023/08/27 08:09:45;;;;;;;2.25;1.02;;;19.70;56.00;;;;;;4955074;28;20058;-87
2023/08/27 08:12:12;;;;;;;3.10;0.90;;;19.70;55.80;;;;;;4959656;28;20074;-89
2023/08/27 08:14:41;;;;;;;1.13;0.80;;;19.80;55.70;;;;;;4957466;28;20055;-89
2023/08/27 08:17:08;;;;;;;2.10;0.80;;;19.90;55.70;;;;;;4958423;28;20054;-90
2023/08/27 08:19:36;;;;;;;0.90;0.70;;;20.00;55.70;;;;;;4955842;28;20065;-88
2023/08/27 08:22:04;;;;;;;0.85;0.80;;;20.10;55.60;;;;;;4958775;28;20498;-85
2023/08/27 08:24:31;;;;;;;1.23;0.77;;;20.20;55.60;;;;;;4957350;28;20047;-88
2023/08/27 08:27:02;;;;;;;0.75;0.75;;;20.30;55.50;;;;;;4957993;28;20162;-88
2023/08/27 08:29:29;;;;;;;2.05;1.00;;;20.40;55.30;;;;;;4960382;28;20051;-87
2023/08/27 08:31:58;;;;;;;0.77;0.70;;;20.50;55.00;;;;;;4958021;28;20050;-86
2023/08/27 08:34:27;;;;;;;4.20;0.95;;;20.50;54.20;;;;;;4960960;28;20258;-87
2023/08/27 08:36:54;;;;;;;2.85;0.90;;;20.60;53.60;;;;;;4958021;28;20506;-88
2023/08/27 08:39:24;;;;;;;1.25;0.68;;;20.70;53.60;;;;;;4958515;28;20418;-87
2023/08/27 08:42:02;;;;;;;3.15;0.70;;;20.70;53.60;;;;;;4956135;28;20051;-87
2023/08/27 08:44:39;;;;;;;2.83;0.82;;;20.80;53.60;;;;;;4958289;28;20110;-86
2023/08/27 08:47:10;;;;;;;4.10;2.17;;;20.80;53.50;;;;;;4960155;28;20054;-86
2023/08/27 08:49:40;;;;;;;3.28;1.10;;;20.90;53.40;;;;;;4957227;28;20062;-86
2023/08/27 08:52:10;;;;;;;1.15;0.70;;;20.90;53.30;;;;;;4958504;28;20051;-86
2023/08/27 08:54:40;;;;;;;1.98;0.85;;;21.00;53.10;;;;;;4958872;28;20065;-87
2023/08/27 08:57:12;;;;;;;3.10;0.88;;;21.00;53.10;;;;;;4956591;28;20069;-86
2023/08/27 08:59:40;;;;;;;3.70;0.90;;;21.10;53.00;;;;;;4956212;28;20530;-87
2023/08/27 09:02:12;;;;;;;0.70;0.65;;;21.10;52.70;;;;;;4959634;28;20830;-85
2023/08/27 09:04:42;;;;;;;2.78;1.05;;;21.20;52.80;;;;;;4954408;28;20414;-87
2023/08/27 09:07:10;;;;;;;2.40;0.95;;;21.20;52.90;;;;;;4957195;28;20070;-86
2023/08/27 09:09:39;;;;;;;1.48;0.70;;;21.30;52.70;;;;;;4958926;28;20589;-86
2023/08/27 09:12:09;;;;;;;2.53;1.00;;;21.30;52.60;;;;;;4958907;28;20525;-87
2023/08/27 09:14:37;;;;;;;2.63;1.00;;;21.40;52.20;;;;;;4960185;28;20054;-87
2023/08/27 09:17:05;;;;;;;2.40;0.90;;;21.40;52.10;;;;;;4958673;28;20054;-87
2023/08/27 09:19:34;;;;;;;1.83;0.70;;;21.40;52.00;;;;;;4955180;28;20077;-87
2023/08/27 09:22:01;;;;;;;1.60;0.70;;;21.50;52.00;;;;;;4956838;28;20057;-88
2023/08/27 09:24:29;;;;;;;4.60;1.38;;;21.50;52.10;;;;;;4958134;28;20050;-88
2023/08/27 09:26:56;;;;;;;0.85;0.60;;;21.50;51.90;;;;;;4958512;28;20047;-88
2023/08/27 09:29:25;;;;;;;1.00;0.90;;;21.50;52.00;;;;;;4958244;28;20055;-88
2023/08/27 09:31:56;;;;;;;2.38;1.02;;;21.50;51.80;;;;;;4957196;28;20055;-88
2023/08/27 09:34:24;;;;;;;1.58;0.90;;;21.50;51.50;;;;;;4957788;28;20523;-88
2023/08/27 09:36:52;;;;;;;3.33;0.80;;;21.50;52.00;;;;;;4957722;28;20062;-88
2023/08/27 09:39:20;;;;;;;1.00;0.70;;;21.50;52.10;;;;;;4957751;28;20494;-88
2023/08/27 09:41:47;;;;;;;1.40;0.80;;;21.60;52.00;;;;;;4957347;28;20058;-88
2023/08/27 09:44:15;;;;;;;1.05;0.80;;;21.60;51.90;;;;;;4954897;28;20066;-88
2023/08/27 09:46:43;;;;;;;1.90;0.90;;;21.60;51.40;;;;;;4953610;28;20066;-88
2023/08/27 09:49:10;;;;;;;16.80;8.77;;;21.60;51.10;;;;;;4957124;28;20498;-89
2023/08/27 09:51:39;;;;;;;7.05;2.75;;;21.60;51.50;;;;;;4957323;28;20054;-89
2023/08/27 09:54:15;;;;;;;3.80;0.90;;;21.60;51.30;;;;;;4957236;28;20055;-87
2023/08/27 09:56:45;;;;;;;1.27;0.82;;;21.60;50.90;;;;;;4957474;28;20059;-88
2023/08/27 09:59:16;;;;;;;0.70;0.70;;;21.60;51.40;;;;;;4955477;28;20061;-89
2023/08/27 10:01:48;;;;;;;1.17;0.70;;;21.60;51.50;;;;;;4958039;28;20055;-89
2023/08/27 10:04:15;;;;;;;1.75;0.80;;;21.70;51.70;;;;;;4957319;28;20506;-88
2023/08/27 10:06:43;;;;;;;2.08;0.80;;;21.70;51.70;;;;;;4962140;28;20128;-88
2023/08/27 10:09:10;;;;;;;0.85;0.63;;;21.70;52.00;;;;;;4958178;28;20495;-89
2023/08/27 10:11:41;;;;;;;1.83;0.80;;;21.70;52.00;;;;;;4960759;28;20051;-89
2023/08/27 10:14:09;;;;;;;2.65;0.80;;;21.70;51.50;;;;;;4959820;28;20066;-88
2023/08/27 10:16:37;;;;;;;2.42;1.00;;;21.70;51.20;;;;;;4958865;28;20065;-89
2023/08/27 10:19:05;;;;;;;2.38;1.00;;;21.80;51.10;;;;;;4961683;28;20062;-88
2023/08/27 10:21:33;;;;;;;1.98;0.85;;;21.70;51.00;;;;;;4961947;28;20054;-88
2023/08/27 10:24:02;;;;;;;1.63;0.95;;;21.70;51.90;;;;;;4959167;28;20055;-89
2023/08/27 10:26:31;;;;;;;1.33;0.82;;;21.80;51.80;;;;;;4961424;28;20135;-88
2023/08/27 10:29:00;;;;;;;1.73;1.00;;;21.80;51.50;;;;;;4962661;28;20474;-87
2023/08/27 10:31:27;;;;;;;6.65;0.90;;;21.80;51.00;;;;;;4960241;28;20074;-89
2023/08/27 10:33:54;;;;;;;1.23;0.73;;;21.80;51.10;;;;;;4959618;28;20055;-88
2023/08/27 10:36:27;;;;;;;1.88;0.80;;;21.80;51.40;;;;;;4960952;28;20067;-88
2023/08/27 10:38:56;;;;;;;1.63;1.00;;;21.80;51.40;;;;;;4961576;28;20054;-88
2023/08/27 10:41:25;;;;;;;2.58;1.00;;;21.70;51.40;;;;;;4960823;28;20674;-88
2023/08/27 10:43:53;;;;;;;1.20;0.82;;;21.80;51.40;;;;;;4959872;28;20058;-89
2023/08/27 10:46:24;;;;;;;1.98;0.80;;;21.80;51.50;;;;;;4958158;28;20051;-88
2023/08/27 10:48:53;;;;;;;1.85;1.00;;;21.80;51.60;;;;;;4960398;28;20069;-88
2023/08/27 10:51:22;;;;;;;5.60;1.00;;;21.80;51.80;;;;;;4959321;28;20054;-89
2023/08/27 10:53:57;;;;;;;1.25;0.70;;;21.80;51.70;;;;;;4961222;28;20509;-89
2023/08/27 10:56:30;;;;;;;1.00;0.60;;;21.80;51.70;;;;;;4959402;28;20069;-88
2023/08/27 10:58:59;;;;;;;2.25;1.00;;;21.90;51.70;;;;;;4959380;28;20391;-88
2023/08/27 11:01:27;;;;;;;2.50;1.23;;;21.90;51.60;;;;;;4959139;28;20054;-89
2023/08/27 11:03:57;;;;;;;1.45;1.05;;;21.90;51.70;;;;;;4961457;28;20051;-90
2023/08/27 11:06:48;;;;;;;2.00;0.95;;;21.90;51.50;;;;;;4959277;28;20055;-88
2023/08/27 11:09:18;;;;;;;3.08;0.70;;;21.90;51.30;;;;;;4941695;28;20063;-89
2023/08/27 11:11:47;;;;;;;1.92;0.95;;;21.90;51.10;;;;;;4968894;28;20057;-89
2023/08/27 11:14:16;;;;;;;1.25;0.70;;;21.90;50.40;;;;;;4960676;28;20475;-89
2023/08/27 11:16:49;;;;;;;1.92;0.95;;;22.00;50.70;;;;;;4958258;28;20058;-89
2023/08/27 11:19:26;;;;;;;3.42;0.95;;;22.00;50.60;;;;;;4961172;28;20054;-91
2023/08/27 11:21:53;;;;;;;1.67;0.90;;;22.00;50.80;;;;;;4960518;28;20514;-88
2023/08/27 11:24:24;;;;;;;0.80;0.60;;;22.00;50.80;;;;;;4959616;28;20717;-88
2023/08/27 11:26:54;;;;;;;2.05;1.00;;;22.10;51.00;;;;;;4963770;28;20055;-87
2023/08/27 11:29:25;;;;;;;3.15;0.80;;;22.10;51.00;;;;;;4962538;28;20046;-88
2023/08/27 11:31:54;;;;;;;1.02;0.75;;;22.10;50.90;;;;;;4962073;28;20078;-88
2023/08/27 11:34:22;;;;;;;2.60;1.00;;;22.10;50.40;;;;;;4962097;28;20058;-89
2023/08/27 11:36:54;;;;;;;1.20;0.57;;;22.20;50.20;;;;;;4962200;28;20047;-88
2023/08/27 11:39:22;;;;;;;1.10;0.80;;;22.20;50.50;;;;;;4961350;28;20069;-88
2023/08/27 11:41:50;;;;;;;0.95;0.75;;;22.20;50.60;;;;;;4959586;28;20070;-88
2023/08/27 11:44:18;;;;;;;5.43;0.70;;;22.30;50.70;;;;;;4961945;28;20050;-87
2023/08/27 11:46:46;;;;;;;1.83;0.80;;;22.30;50.70;;;;;;4962348;28;20419;-87
2023/08/27 11:49:15;;;;;;;1.02;0.60;;;22.40;50.40;;;;;;4962399;28;20066;-87
2023/08/27 11:51:43;;;;;;;2.67;0.82;;;22.50;50.50;;;;;;4961819;28;20061;-88
2023/08/27 11:54:11;;;;;;;2.22;1.00;;;22.50;50.20;;;;;;4961596;28;20483;-92
2023/08/27 11:56:39;;;;;;;1.85;0.80;;;22.60;49.90;;;;;;4962484;28;20066;-89
2023/08/27 11:59:06;;;;;;;4.75;2.80;;;22.60;49.90;;;;;;4960827;28;20059;-86
2023/08/27 12:01:34;;;;;;;6.65;3.70;;;22.70;50.00;;;;;;4961804;28;20069;-86
2023/08/27 12:04:03;;;;;;;3.20;1.58;;;22.70;50.10;;;;;;4962439;28;20069;-87
2023/08/27 12:06:31;;;;;;;1.60;0.82;;;22.70;49.90;;;;;;4961046;28;20054;-86
2023/08/27 12:09:00;;;;;;;4.65;1.20;;;22.80;49.70;;;;;;4969114;28;20055;-88
2023/08/27 12:11:28;;;;;;;1.90;0.95;;;22.80;50.60;;;;;;4960873;28;20058;-88
2023/08/27 12:13:59;;;;;;;2.05;1.02;;;22.80;51.00;;;;;;4963154;28;20062;-87
2023/08/27 12:16:30;;;;;;;1.52;0.70;;;22.70;51.00;;;;;;4968342;28;20055;-86
2023/08/27 12:19:03;;;;;;;2.55;1.13;;;22.70;51.00;;;;;;4962656;28;20066;-87
2023/08/27 12:21:36;;;;;;;2.40;1.00;;;22.70;51.70;;;;;;4959268;28;20125;-87
2023/08/27 12:24:06;;;;;;;2.50;0.98;;;22.70;51.30;;;;;;4963576;28;20063;-87
2023/08/27 12:26:34;;;;;;;1.83;0.82;;;22.70;51.40;;;;;;4959107;28;20410;-87
2023/08/27 12:29:01;;;;;;;0.90;0.77;;;22.70;51.70;;;;;;4962324;28;20061;-86
2023/08/27 12:31:29;;;;;;;2.33;0.90;;;22.60;52.00;;;;;;4961491;28;20051;-86
2023/08/27 12:34:00;;;;;;;2.50;0.95;;;22.60;52.40;;;;;;4957812;28;20062;-87
2023/08/27 12:36:27;;;;;;;2.25;0.88;;;22.60;52.70;;;;;;4965595;28;20059;-86
2023/08/27 12:38:56;;;;;;;1.20;0.70;;;22.60;52.80;;;;;;4959499;28;20066;-87
2023/08/27 12:41:23;;;;;;;1.40;0.90;;;22.50;52.80;;;;;;4959005;28;20058;-86
2023/08/27 12:43:52;;;;;;;1.00;0.85;;;22.50;52.70;;;;;;4959399;28;20047;-87
2023/08/27 12:46:20;;;;;;;3.15;1.13;;;22.50;52.70;;;;;;4955433;28;20070;-86
2023/08/27 12:48:48;;;;;;;2.97;1.10;;;22.50;52.50;;;;;;4956574;28;20050;-85
2023/08/27 12:51:15;;;;;;;1.70;0.88;;;22.50;52.50;;;;;;4959252;28;20058;-85
2023/08/27 12:53:43;;;;;;;0.65;0.63;;;22.50;52.30;;;;;;4966678;28;20050;-86